sensor_id;sensor_type;location;lat;lon;timestamp;P1;durP1;ratioP1;P2;durP2;ratioP2
70667;SDS011;58242;51.250;-1.118;2024-02-16T00:00:46;5.22;;;4.72;;
70667;SDS011;58242;51.250;-1.118;2024-02-16T00:03:12;6.80;;;4.45;;
70667;SDS011;58242;51.250;-1.118;2024-02-16T00:05:38;4.88;;;4.47;;
70667;SDS011;58242;51.250;-1.118;2024-02-16T00:08:03;4.60;;;4.30;;
70667;SDS011;58242;51.250;-1.118;2024-02-16T00:10:29;5.88;;;4.90;;
70667;SDS011;58242;51.250;-1.118;2024-02-16T00:12:55;4.63;;;4.28;;
70667;SDS011;58242;51.250;-1.118;2024-02-16T00:15:21;5.00;;;4.60;;
70667;SDS011;58242;51.250;-1.118;2024-02-16T00:17:47;5.97;;;5.30;;
70667;SDS011;58242;51.250;-1.118;2024-02-16T00:20:13;5.40;;;4.95;;
70667;SDS011;58242;51.250;-1.118;2024-02-16T00:22:38;5.68;;;5.28;;
70667;SDS011;58242;51.250;-1.118;2024-02-16T00:25:04;6.20;;;5.68;;
70667;SDS011;58242;51.250;-1.118;2024-02-16T00:27:29;6.28;;;5.70;;
70667;SDS011;58242;51.250;-1.118;2024-02-16T00:29:55;6.03;;;5.55;;
70667;SDS011;58242;51.250;-1.118;2024-02-16T00:32:20;5.38;;;4.90;;
70667;SDS011;58242;51.250;-1.118;2024-02-16T00:34:48;7.03;;;6.43;;
70667;SDS011;58242;51.250;-1.118;2024-02-16T00:37:17;5.95;;;5.40;;
70667;SDS011;58242;51.250;-1.118;2024-02-16T00:39:42;6.25;;;5.75;;
70667;SDS011;58242;51.250;-1.118;2024-02-16T00:42:08;6.70;;;6.13;;
70667;SDS011;58242;51.250;-1.118;2024-02-16T00:44:33;6.63;;;6.13;;
70667;SDS011;58242;51.250;-1.118;2024-02-16T00:46:59;6.30;;;5.70;;
70667;SDS011;58242;51.250;-1.118;2024-02-16T00:49:25;5.65;;;5.15;;
70667;SDS011;58242;51.250;-1.118;2024-02-16T00:51:50;5.25;;;4.80;;
70667;SDS011;58242;51.250;-1.118;2024-02-16T00:54:16;5.22;;;4.82;;
70667;SDS011;58242;51.250;-1.118;2024-02-16T00:56:42;6.40;;;5.88;;
70667;SDS011;58242;51.250;-1.118;2024-02-16T00:59:07;5.32;;;5.03;;
70667;SDS011;58242;51.250;-1.118;2024-02-16T01:01:34;6.85;;;6.25;;
70667;SDS011;58242;51.250;-1.118;2024-02-16T01:04:00;5.78;;;5.38;;
70667;SDS011;58242;51.250;-1.118;2024-02-16T01:06:26;5.88;;;5.38;;
70667;SDS011;58242;51.250;-1.118;2024-02-16T01:08:51;5.22;;;4.93;;
70667;SDS011;58242;51.250;-1.118;2024-02-16T01:11:16;5.28;;;4.88;;
70667;SDS011;58242;51.250;-1.118;2024-02-16T01:13:42;5.05;;;4.78;;
70667;SDS011;58242;51.250;-1.118;2024-02-16T01:16:08;5.60;;;5.30;;
70667;SDS011;58242;51.250;-1.118;2024-02-16T01:18:34;5.32;;;5.03;;
70667;SDS011;58242;51.250;-1.118;2024-02-16T01:21:01;5.32;;;4.93;;
70667;SDS011;58242;51.250;-1.118;2024-02-16T01:23:28;4.43;;;4.22;;
70667;SDS011;58242;51.250;-1.118;2024-02-16T01:25:53;5.38;;;4.97;;
70667;SDS011;58242;51.250;-1.118;2024-02-16T01:28:19;5.00;;;4.70;;
70667;SDS011;58242;51.250;-1.118;2024-02-16T01:30:44;3.83;;;3.63;;
70667;SDS011;58242;51.250;-1.118;2024-02-16T01:33:10;4.25;;;4.00;;
70667;SDS011;58242;51.250;-1.118;2024-02-16T01:35:35;4.40;;;4.20;;
70667;SDS011;58242;51.250;-1.118;2024-02-16T01:38:01;5.00;;;4.70;;
70667;SDS011;58242;51.250;-1.118;2024-02-16T01:40:27;4.97;;;4.68;;
70667;SDS011;58242;51.250;-1.118;2024-02-16T01:42:53;3.50;;;3.40;;
70667;SDS011;58242;51.250;-1.118;2024-02-16T01:45:19;3.50;;;3.40;;
70667;SDS011;58242;51.250;-1.118;2024-02-16T01:47:44;3.20;;;3.10;;
70667;SDS011;58242;51.250;-1.118;2024-02-16T01:50:12;3.43;;;3.23;;
70667;SDS011;58242;51.250;-1.118;2024-02-16T01:52:40;3.30;;;3.20;;
70667;SDS011;58242;51.250;-1.118;2024-02-16T01:55:05;3.10;;;3.00;;
70667;SDS011;58242;51.250;-1.118;2024-02-16T01:57:35;3.00;;;2.90;;
70667;SDS011;58242;51.250;-1.118;2024-02-16T02:00:11;3.17;;;3.08;;
70667;SDS011;58242;51.250;-1.118;2024-02-16T02:02:40;3.25;;;3.15;;
70667;SDS011;58242;51.250;-1.118;2024-02-16T02:05:06;2.78;;;2.67;;
70667;SDS011;58242;51.250;-1.118;2024-02-16T02:07:31;2.95;;;2.75;;
70667;SDS011;58242;51.250;-1.118;2024-02-16T02:09:57;3.08;;;2.97;;
70667;SDS011;58242;51.250;-1.118;2024-02-16T02:12:22;3.08;;;2.97;;
70667;SDS011;58242;51.250;-1.118;2024-02-16T02:14:48;2.78;;;2.67;;
70667;SDS011;58242;51.250;-1.118;2024-02-16T02:17:14;2.90;;;2.80;;
70667;SDS011;58242;51.250;-1.118;2024-02-16T02:19:40;2.78;;;2.67;;
70667;SDS011;58242;51.250;-1.118;2024-02-16T02:22:13;2.80;;;2.70;;
70667;SDS011;58242;51.250;-1.118;2024-02-16T02:24:48;2.67;;;2.58;;
70667;SDS011;58242;51.250;-1.118;2024-02-16T02:27:14;2.92;;;2.83;;
70667;SDS011;58242;51.250;-1.118;2024-02-16T02:29:40;2.45;;;2.35;;
70667;SDS011;58242;51.250;-1.118;2024-02-16T02:32:06;3.05;;;2.63;;
70667;SDS011;58242;51.250;-1.118;2024-02-16T02:34:32;2.55;;;2.45;;
70667;SDS011;58242;51.250;-1.118;2024-02-16T02:36:58;2.58;;;2.50;;
70667;SDS011;58242;51.250;-1.118;2024-02-16T02:39:23;2.50;;;2.45;;
70667;SDS011;58242;51.250;-1.118;2024-02-16T02:41:48;2.70;;;2.60;;
70667;SDS011;58242;51.250;-1.118;2024-02-16T02:44:14;2.90;;;2.80;;
70667;SDS011;58242;51.250;-1.118;2024-02-16T02:46:39;2.88;;;2.78;;
70667;SDS011;58242;51.250;-1.118;2024-02-16T02:49:04;2.85;;;2.75;;
70667;SDS011;58242;51.250;-1.118;2024-02-16T02:51:30;2.53;;;2.42;;
70667;SDS011;58242;51.250;-1.118;2024-02-16T02:53:55;3.10;;;3.00;;
70667;SDS011;58242;51.250;-1.118;2024-02-16T02:56:21;2.80;;;2.70;;
70667;SDS011;58242;51.250;-1.118;2024-02-16T02:58:46;2.60;;;2.50;;
70667;SDS011;58242;51.250;-1.118;2024-02-16T03:01:12;2.30;;;2.30;;
70667;SDS011;58242;51.250;-1.118;2024-02-16T03:03:38;2.88;;;2.78;;
70667;SDS011;58242;51.250;-1.118;2024-02-16T03:06:04;2.95;;;2.85;;
70667;SDS011;58242;51.250;-1.118;2024-02-16T03:08:30;3.00;;;2.90;;
70667;SDS011;58242;51.250;-1.118;2024-02-16T03:10:56;2.90;;;2.80;;
70667;SDS011;58242;51.250;-1.118;2024-02-16T03:13:21;3.05;;;2.95;;
70667;SDS011;58242;51.250;-1.118;2024-02-16T03:15:47;2.83;;;2.72;;
70667;SDS011;58242;51.250;-1.118;2024-02-16T03:18:13;3.08;;;2.97;;
70667;SDS011;58242;51.250;-1.118;2024-02-16T03:20:39;2.83;;;2.70;;
70667;SDS011;58242;51.250;-1.118;2024-02-16T03:23:05;2.80;;;2.70;;
70667;SDS011;58242;51.250;-1.118;2024-02-16T03:25:30;3.00;;;2.90;;
70667;SDS011;58242;51.250;-1.118;2024-02-16T03:27:55;2.80;;;2.70;;
70667;SDS011;58242;51.250;-1.118;2024-02-16T03:30:21;3.35;;;3.10;;
70667;SDS011;58242;51.250;-1.118;2024-02-16T03:32:50;2.97;;;2.88;;
70667;SDS011;58242;51.250;-1.118;2024-02-16T03:35:15;3.20;;;3.10;;
70667;SDS011;58242;51.250;-1.118;2024-02-16T03:37:41;3.38;;;3.28;;
70667;SDS011;58242;51.250;-1.118;2024-02-16T03:40:07;3.13;;;3.03;;
70667;SDS011;58242;51.250;-1.118;2024-02-16T03:42:33;3.20;;;3.10;;
70667;SDS011;58242;51.250;-1.118;2024-02-16T03:44:59;3.20;;;3.10;;
70667;SDS011;58242;51.250;-1.118;2024-02-16T03:47:24;3.15;;;3.05;;
70667;SDS011;58242;51.250;-1.118;2024-02-16T03:49:50;2.80;;;2.70;;
70667;SDS011;58242;51.250;-1.118;2024-02-16T03:52:15;3.00;;;2.90;;
70667;SDS011;58242;51.250;-1.118;2024-02-16T03:54:40;3.00;;;2.90;;
70667;SDS011;58242;51.250;-1.118;2024-02-16T03:57:07;3.25;;;3.15;;
70667;SDS011;58242;51.250;-1.118;2024-02-16T03:59:34;2.90;;;2.80;;
70667;SDS011;58242;51.250;-1.118;2024-02-16T04:02:00;2.90;;;2.80;;
70667;SDS011;58242;51.250;-1.118;2024-02-16T04:04:25;3.17;;;3.08;;
70667;SDS011;58242;51.250;-1.118;2024-02-16T04:06:52;3.17;;;3.08;;
70667;SDS011;58242;51.250;-1.118;2024-02-16T04:09:17;2.67;;;2.58;;
70667;SDS011;58242;51.250;-1.118;2024-02-16T04:11:42;2.63;;;2.53;;
70667;SDS011;58242;51.250;-1.118;2024-02-16T04:14:08;2.40;;;2.30;;
70667;SDS011;58242;51.250;-1.118;2024-02-16T04:16:33;3.13;;;3.03;;
70667;SDS011;58242;51.250;-1.118;2024-02-16T04:18:59;2.58;;;2.47;;
70667;SDS011;58242;51.250;-1.118;2024-02-16T04:21:24;2.58;;;2.47;;
70667;SDS011;58242;51.250;-1.118;2024-02-16T04:23:49;3.00;;;2.90;;
70667;SDS011;58242;51.250;-1.118;2024-02-16T04:26:14;2.90;;;2.80;;
70667;SDS011;58242;51.250;-1.118;2024-02-16T04:28:40;3.08;;;2.97;;
70667;SDS011;58242;51.250;-1.118;2024-02-16T04:31:05;2.80;;;2.70;;
70667;SDS011;58242;51.250;-1.118;2024-02-16T04:33:31;3.20;;;3.10;;
70667;SDS011;58242;51.250;-1.118;2024-02-16T04:35:56;2.80;;;2.70;;
70667;SDS011;58242;51.250;-1.118;2024-02-16T04:38:22;3.13;;;3.03;;
70667;SDS011;58242;51.250;-1.118;2024-02-16T04:40:47;2.40;;;2.30;;
70667;SDS011;58242;51.250;-1.118;2024-02-16T04:43:12;2.90;;;2.80;;
70667;SDS011;58242;51.250;-1.118;2024-02-16T04:45:38;2.97;;;2.88;;
70667;SDS011;58242;51.250;-1.118;2024-02-16T04:48:04;2.85;;;2.75;;
70667;SDS011;58242;51.250;-1.118;2024-02-16T04:50:30;3.00;;;2.90;;
70667;SDS011;58242;51.250;-1.118;2024-02-16T04:52:57;3.08;;;2.97;;
70667;SDS011;58242;51.250;-1.118;2024-02-16T04:55:22;3.30;;;3.20;;
70667;SDS011;58242;51.250;-1.118;2024-02-16T04:57:48;2.83;;;2.72;;
70667;SDS011;58242;51.250;-1.118;2024-02-16T05:00:13;3.08;;;2.88;;
70667;SDS011;58242;51.250;-1.118;2024-02-16T05:02:39;2.80;;;2.70;;
70667;SDS011;58242;51.250;-1.118;2024-02-16T05:05:04;2.90;;;2.80;;
70667;SDS011;58242;51.250;-1.118;2024-02-16T05:07:29;3.40;;;3.30;;
70667;SDS011;58242;51.250;-1.118;2024-02-16T05:09:56;3.25;;;3.15;;
70667;SDS011;58242;51.250;-1.118;2024-02-16T05:12:23;3.35;;;3.20;;
70667;SDS011;58242;51.250;-1.118;2024-02-16T05:14:52;3.00;;;2.90;;
70667;SDS011;58242;51.250;-1.118;2024-02-16T05:17:18;3.13;;;3.00;;
70667;SDS011;58242;51.250;-1.118;2024-02-16T05:19:44;3.72;;;3.63;;
70667;SDS011;58242;51.250;-1.118;2024-02-16T05:22:09;3.30;;;3.20;;
70667;SDS011;58242;51.250;-1.118;2024-02-16T05:24:35;3.92;;;3.70;;
70667;SDS011;58242;51.250;-1.118;2024-02-16T05:27:00;3.78;;;3.58;;
70667;SDS011;58242;51.250;-1.118;2024-02-16T05:29:26;3.65;;;3.45;;
70667;SDS011;58242;51.250;-1.118;2024-02-16T05:31:52;3.97;;;3.78;;
70667;SDS011;58242;51.250;-1.118;2024-02-16T05:34:17;4.00;;;3.70;;
70667;SDS011;58242;51.250;-1.118;2024-02-16T05:36:42;4.35;;;4.05;;
70667;SDS011;58242;51.250;-1.118;2024-02-16T05:39:08;4.18;;;3.97;;
70667;SDS011;58242;51.250;-1.118;2024-02-16T05:41:51;4.00;;;3.80;;
70667;SDS011;58242;51.250;-1.118;2024-02-16T05:44:20;5.50;;;5.03;;
70667;SDS011;58242;51.250;-1.118;2024-02-16T05:46:45;4.60;;;4.30;;
70667;SDS011;58242;51.250;-1.118;2024-02-16T05:49:10;5.38;;;4.97;;
70667;SDS011;58242;51.250;-1.118;2024-02-16T05:51:39;5.65;;;5.00;;
70667;SDS011;58242;51.250;-1.118;2024-02-16T05:54:06;5.93;;;5.00;;
70667;SDS011;58242;51.250;-1.118;2024-02-16T05:56:33;6.57;;;5.32;;
70667;SDS011;58242;51.250;-1.118;2024-02-16T05:59:02;4.85;;;4.32;;
70667;SDS011;58242;51.250;-1.118;2024-02-16T06:01:29;5.10;;;4.70;;
70667;SDS011;58242;51.250;-1.118;2024-02-16T06:03:54;5.30;;;4.78;;
70667;SDS011;58242;51.250;-1.118;2024-02-16T06:06:20;7.72;;;4.95;;
70667;SDS011;58242;51.250;-1.118;2024-02-16T06:08:45;6.28;;;5.78;;
70667;SDS011;58242;51.250;-1.118;2024-02-16T06:11:10;7.38;;;5.15;;
70667;SDS011;58242;51.250;-1.118;2024-02-16T06:13:36;6.20;;;4.65;;
70667;SDS011;58242;51.250;-1.118;2024-02-16T06:16:04;5.88;;;4.68;;
70667;SDS011;58242;51.250;-1.118;2024-02-16T06:18:30;6.15;;;4.78;;
70667;SDS011;58242;51.250;-1.118;2024-02-16T06:20:55;5.13;;;4.63;;
70667;SDS011;58242;51.250;-1.118;2024-02-16T06:23:21;7.05;;;5.03;;
70667;SDS011;58242;51.250;-1.118;2024-02-16T06:25:46;5.47;;;4.65;;
70667;SDS011;58242;51.250;-1.118;2024-02-16T06:28:11;7.75;;;5.63;;
70667;SDS011;58242;51.250;-1.118;2024-02-16T06:30:37;4.88;;;4.50;;
70667;SDS011;58242;51.250;-1.118;2024-02-16T06:33:02;5.68;;;4.78;;
70667;SDS011;58242;51.250;-1.118;2024-02-16T06:35:29;5.38;;;4.90;;
70667;SDS011;58242;51.250;-1.118;2024-02-16T06:37:57;4.50;;;4.20;;
70667;SDS011;58242;51.250;-1.118;2024-02-16T06:40:22;5.75;;;4.70;;
70667;SDS011;58242;51.250;-1.118;2024-02-16T06:42:47;5.53;;;5.03;;
70667;SDS011;58242;51.250;-1.118;2024-02-16T06:45:13;5.63;;;4.78;;
70667;SDS011;58242;51.250;-1.118;2024-02-16T06:47:38;5.15;;;4.70;;
70667;SDS011;58242;51.250;-1.118;2024-02-16T06:50:04;8.30;;;4.60;;
70667;SDS011;58242;51.250;-1.118;2024-02-16T06:52:29;4.55;;;4.25;;
70667;SDS011;58242;51.250;-1.118;2024-02-16T06:54:55;4.60;;;4.15;;
70667;SDS011;58242;51.250;-1.118;2024-02-16T06:57:20;4.20;;;3.70;;
70667;SDS011;58242;51.250;-1.118;2024-02-16T06:59:46;5.53;;;5.03;;
70667;SDS011;58242;51.250;-1.118;2024-02-16T07:02:11;7.93;;;5.35;;
70667;SDS011;58242;51.250;-1.118;2024-02-16T07:04:39;7.93;;;5.80;;
70667;SDS011;58242;51.250;-1.118;2024-02-16T07:07:05;6.97;;;5.32;;
70667;SDS011;58242;51.250;-1.118;2024-02-16T07:09:31;10.63;;;6.28;;
70667;SDS011;58242;51.250;-1.118;2024-02-16T07:11:57;9.20;;;5.70;;
70667;SDS011;58242;51.250;-1.118;2024-02-16T07:14:23;7.65;;;6.40;;
70667;SDS011;58242;51.250;-1.118;2024-02-16T07:16:49;7.22;;;5.35;;
70667;SDS011;58242;51.250;-1.118;2024-02-16T07:19:14;6.43;;;5.82;;
70667;SDS011;58242;51.250;-1.118;2024-02-16T07:21:40;7.95;;;5.93;;
70667;SDS011;58242;51.250;-1.118;2024-02-16T07:24:05;8.10;;;6.20;;
70667;SDS011;58242;51.250;-1.118;2024-02-16T07:26:31;6.97;;;6.18;;
70667;SDS011;58242;51.250;-1.118;2024-02-16T07:28:56;8.30;;;6.88;;
70667;SDS011;58242;51.250;-1.118;2024-02-16T07:31:22;8.43;;;5.45;;
70667;SDS011;58242;51.250;-1.118;2024-02-16T07:33:47;7.95;;;5.78;;
70667;SDS011;58242;51.250;-1.118;2024-02-16T07:36:12;6.80;;;5.30;;
70667;SDS011;58242;51.250;-1.118;2024-02-16T07:38:39;9.73;;;5.60;;
70667;SDS011;58242;51.250;-1.118;2024-02-16T07:41:04;8.25;;;6.57;;
70667;SDS011;58242;51.250;-1.118;2024-02-16T07:43:30;9.50;;;5.95;;
70667;SDS011;58242;51.250;-1.118;2024-02-16T07:45:56;7.28;;;5.57;;
70667;SDS011;58242;51.250;-1.118;2024-02-16T07:48:22;7.80;;;5.20;;
70667;SDS011;58242;51.250;-1.118;2024-02-16T07:50:47;6.78;;;5.18;;
70667;SDS011;58242;51.250;-1.118;2024-02-16T07:53:15;6.28;;;4.45;;
70667;SDS011;58242;51.250;-1.118;2024-02-16T07:55:41;5.65;;;4.20;;
70667;SDS011;58242;51.250;-1.118;2024-02-16T07:58:06;6.13;;;4.30;;
70667;SDS011;58242;51.250;-1.118;2024-02-16T08:00:32;8.27;;;4.35;;
70667;SDS011;58242;51.250;-1.118;2024-02-16T08:02:57;4.32;;;3.85;;
70667;SDS011;58242;51.250;-1.118;2024-02-16T08:05:23;5.72;;;4.22;;
70667;SDS011;58242;51.250;-1.118;2024-02-16T08:07:50;7.75;;;4.20;;
70667;SDS011;58242;51.250;-1.118;2024-02-16T08:10:18;4.47;;;3.70;;
70667;SDS011;58242;51.250;-1.118;2024-02-16T08:12:45;3.40;;;3.13;;
70667;SDS011;58242;51.250;-1.118;2024-02-16T08:15:11;4.75;;;3.38;;
70667;SDS011;58242;51.250;-1.118;2024-02-16T08:17:37;6.15;;;3.50;;
70667;SDS011;58242;51.250;-1.118;2024-02-16T08:20:02;11.18;;;4.57;;
70667;SDS011;58242;51.250;-1.118;2024-02-16T08:22:28;4.88;;;3.45;;
70667;SDS011;58242;51.250;-1.118;2024-02-16T08:24:53;6.90;;;4.30;;
70667;SDS011;58242;51.250;-1.118;2024-02-16T08:27:19;4.68;;;3.40;;
70667;SDS011;58242;51.250;-1.118;2024-02-16T08:29:45;4.15;;;3.38;;
70667;SDS011;58242;51.250;-1.118;2024-02-16T08:32:10;4.97;;;3.33;;
70667;SDS011;58242;51.250;-1.118;2024-02-16T08:34:36;5.45;;;3.53;;
70667;SDS011;58242;51.250;-1.118;2024-02-16T08:37:05;3.65;;;3.22;;
70667;SDS011;58242;51.250;-1.118;2024-02-16T08:39:31;5.57;;;3.70;;
70667;SDS011;58242;51.250;-1.118;2024-02-16T08:41:57;8.27;;;4.22;;
70667;SDS011;58242;51.250;-1.118;2024-02-16T08:44:23;3.58;;;3.08;;
70667;SDS011;58242;51.250;-1.118;2024-02-16T08:46:49;5.03;;;3.38;;
70667;SDS011;58242;51.250;-1.118;2024-02-16T08:49:15;4.80;;;3.70;;
70667;SDS011;58242;51.250;-1.118;2024-02-16T08:51:41;4.50;;;3.83;;
70667;SDS011;58242;51.250;-1.118;2024-02-16T08:54:07;7.80;;;3.50;;
70667;SDS011;58242;51.250;-1.118;2024-02-16T08:56:32;5.82;;;3.60;;
70667;SDS011;58242;51.250;-1.118;2024-02-16T08:59:00;3.90;;;3.20;;
70667;SDS011;58242;51.250;-1.118;2024-02-16T09:01:32;3.28;;;2.97;;
70667;SDS011;58242;51.250;-1.118;2024-02-16T09:04:03;4.97;;;3.08;;
70667;SDS011;58242;51.250;-1.118;2024-02-16T09:06:28;6.63;;;3.78;;
70667;SDS011;58242;51.250;-1.118;2024-02-16T09:08:54;5.57;;;3.80;;
70667;SDS011;58242;51.250;-1.118;2024-02-16T09:11:20;4.28;;;3.08;;
70667;SDS011;58242;51.250;-1.118;2024-02-16T09:13:46;5.07;;;3.13;;
70667;SDS011;58242;51.250;-1.118;2024-02-16T09:16:12;4.18;;;2.78;;
70667;SDS011;58242;51.250;-1.118;2024-02-16T09:18:37;6.90;;;3.75;;
70667;SDS011;58242;51.250;-1.118;2024-02-16T09:21:03;4.53;;;3.25;;
70667;SDS011;58242;51.250;-1.118;2024-02-16T09:23:29;8.52;;;3.53;;
70667;SDS011;58242;51.250;-1.118;2024-02-16T09:25:55;4.80;;;3.35;;
70667;SDS011;58242;51.250;-1.118;2024-02-16T09:28:21;3.80;;;3.38;;
70667;SDS011;58242;51.250;-1.118;2024-02-16T09:30:46;4.45;;;2.90;;
70667;SDS011;58242;51.250;-1.118;2024-02-16T09:33:12;3.92;;;2.92;;
70667;SDS011;58242;51.250;-1.118;2024-02-16T09:35:38;3.35;;;3.05;;
70667;SDS011;58242;51.250;-1.118;2024-02-16T09:38:04;3.53;;;2.65;;
70667;SDS011;58242;51.250;-1.118;2024-02-16T09:40:29;4.55;;;3.22;;
70667;SDS011;58242;51.250;-1.118;2024-02-16T09:42:55;3.00;;;2.80;;
70667;SDS011;58242;51.250;-1.118;2024-02-16T09:45:20;4.32;;;3.00;;
70667;SDS011;58242;51.250;-1.118;2024-02-16T09:47:47;4.82;;;2.78;;
70667;SDS011;58242;51.250;-1.118;2024-02-16T09:50:12;3.47;;;2.95;;
70667;SDS011;58242;51.250;-1.118;2024-02-16T09:52:38;3.60;;;2.50;;
70667;SDS011;58242;51.250;-1.118;2024-02-16T09:55:07;3.40;;;3.10;;
70667;SDS011;58242;51.250;-1.118;2024-02-16T09:57:36;3.30;;;3.10;;
70667;SDS011;58242;51.250;-1.118;2024-02-16T10:00:02;2.85;;;2.65;;
70667;SDS011;58242;51.250;-1.118;2024-02-16T10:05:17;3.75;;;3.45;;
70667;SDS011;58242;51.250;-1.118;2024-02-16T10:07:45;4.20;;;3.60;;
70667;SDS011;58242;51.250;-1.118;2024-02-16T10:10:20;3.40;;;3.20;;
70667;SDS011;58242;51.250;-1.118;2024-02-16T10:12:50;4.38;;;3.08;;
70667;SDS011;58242;51.250;-1.118;2024-02-16T10:15:25;3.28;;;2.97;;
70667;SDS011;58242;51.250;-1.118;2024-02-16T10:18:03;3.72;;;3.53;;
70667;SDS011;58242;51.250;-1.118;2024-02-16T10:20:30;4.43;;;4.03;;
70667;SDS011;58242;51.250;-1.118;2024-02-16T10:25:32;3.67;;;3.28;;
70667;SDS011;58242;51.250;-1.118;2024-02-16T10:27:58;3.88;;;3.45;;
70667;SDS011;58242;51.250;-1.118;2024-02-16T10:30:29;2.95;;;2.75;;
70667;SDS011;58242;51.250;-1.118;2024-02-16T10:32:58;4.47;;;3.30;;
70667;SDS011;58242;51.250;-1.118;2024-02-16T10:35:24;2.75;;;2.60;;
70667;SDS011;58242;51.250;-1.118;2024-02-16T10:37:51;3.40;;;3.10;;
70667;SDS011;58242;51.250;-1.118;2024-02-16T10:40:18;3.15;;;2.88;;
70667;SDS011;58242;51.250;-1.118;2024-02-16T10:42:47;5.43;;;2.80;;
70667;SDS011;58242;51.250;-1.118;2024-02-16T10:45:14;4.25;;;3.30;;
70667;SDS011;58242;51.250;-1.118;2024-02-16T10:47:40;5.03;;;3.85;;
70667;SDS011;58242;51.250;-1.118;2024-02-16T10:50:06;3.10;;;2.90;;
70667;SDS011;58242;51.250;-1.118;2024-02-16T10:52:32;3.35;;;3.15;;
70667;SDS011;58242;51.250;-1.118;2024-02-16T10:54:59;3.40;;;3.10;;
70667;SDS011;58242;51.250;-1.118;2024-02-16T10:57:25;3.72;;;3.42;;
70667;SDS011;58242;51.250;-1.118;2024-02-16T10:59:52;3.30;;;3.03;;
70667;SDS011;58242;51.250;-1.118;2024-02-16T11:02:19;2.80;;;2.45;;
70667;SDS011;58242;51.250;-1.118;2024-02-16T11:04:46;3.00;;;2.88;;
70667;SDS011;58242;51.250;-1.118;2024-02-16T11:07:16;2.95;;;2.85;;
70667;SDS011;58242;51.250;-1.118;2024-02-16T11:09:43;3.47;;;3.25;;
70667;SDS011;58242;51.250;-1.118;2024-02-16T11:12:11;3.53;;;2.85;;
70667;SDS011;58242;51.250;-1.118;2024-02-16T11:14:38;2.70;;;2.50;;
70667;SDS011;58242;51.250;-1.118;2024-02-16T11:17:12;3.40;;;2.53;;
70667;SDS011;58242;51.250;-1.118;2024-02-16T11:19:41;2.80;;;2.58;;
70667;SDS011;58242;51.250;-1.118;2024-02-16T11:22:08;2.70;;;2.50;;
70667;SDS011;58242;51.250;-1.118;2024-02-16T11:24:37;2.63;;;2.42;;
70667;SDS011;58242;51.250;-1.118;2024-02-16T11:27:09;3.03;;;2.70;;
70667;SDS011;58242;51.250;-1.118;2024-02-16T11:29:36;2.95;;;2.55;;
70667;SDS011;58242;51.250;-1.118;2024-02-16T11:32:03;4.82;;;2.60;;
70667;SDS011;58242;51.250;-1.118;2024-02-16T11:34:30;3.20;;;2.90;;
70667;SDS011;58242;51.250;-1.118;2024-02-16T11:36:56;4.35;;;3.05;;
70667;SDS011;58242;51.250;-1.118;2024-02-16T11:39:22;3.33;;;2.92;;
70667;SDS011;58242;51.250;-1.118;2024-02-16T11:41:47;3.53;;;3.22;;
70667;SDS011;58242;51.250;-1.118;2024-02-16T11:44:13;2.95;;;2.65;;
70667;SDS011;58242;51.250;-1.118;2024-02-16T11:46:42;3.42;;;2.63;;
70667;SDS011;58242;51.250;-1.118;2024-02-16T11:49:08;3.47;;;2.50;;
70667;SDS011;58242;51.250;-1.118;2024-02-16T11:51:33;3.70;;;2.70;;
70667;SDS011;58242;51.250;-1.118;2024-02-16T11:53:59;2.60;;;2.47;;
70667;SDS011;58242;51.250;-1.118;2024-02-16T11:56:25;3.22;;;2.97;;
70667;SDS011;58242;51.250;-1.118;2024-02-16T11:58:51;2.92;;;2.72;;
70667;SDS011;58242;51.250;-1.118;2024-02-16T12:01:17;2.53;;;2.38;;
70667;SDS011;58242;51.250;-1.118;2024-02-16T12:03:42;2.70;;;2.50;;
70667;SDS011;58242;51.250;-1.118;2024-02-16T12:06:08;2.67;;;2.47;;
70667;SDS011;58242;51.250;-1.118;2024-02-16T12:08:34;3.05;;;2.92;;
70667;SDS011;58242;51.250;-1.118;2024-02-16T12:11:00;3.08;;;2.42;;
70667;SDS011;58242;51.250;-1.118;2024-02-16T12:13:27;3.30;;;3.00;;
70667;SDS011;58242;51.250;-1.118;2024-02-16T12:15:52;4.70;;;3.25;;
70667;SDS011;58242;51.250;-1.118;2024-02-16T12:18:25;2.97;;;2.75;;
70667;SDS011;58242;51.250;-1.118;2024-02-16T12:21:00;4.45;;;3.50;;
70667;SDS011;58242;51.250;-1.118;2024-02-16T12:23:26;3.33;;;3.00;;
70667;SDS011;58242;51.250;-1.118;2024-02-16T12:25:52;3.33;;;3.13;;
70667;SDS011;58242;51.250;-1.118;2024-02-16T12:28:18;3.15;;;2.95;;
70667;SDS011;58242;51.250;-1.118;2024-02-16T12:30:45;3.17;;;2.75;;
70667;SDS011;58242;51.250;-1.118;2024-02-16T12:33:11;2.53;;;2.42;;
70667;SDS011;58242;51.250;-1.118;2024-02-16T12:35:36;3.10;;;2.90;;
70667;SDS011;58242;51.250;-1.118;2024-02-16T12:38:02;2.80;;;2.60;;
70667;SDS011;58242;51.250;-1.118;2024-02-16T12:40:27;3.33;;;2.78;;
70667;SDS011;58242;51.250;-1.118;2024-02-16T12:42:54;2.83;;;2.53;;
70667;SDS011;58242;51.250;-1.118;2024-02-16T12:45:19;2.88;;;2.72;;
70667;SDS011;58242;51.250;-1.118;2024-02-16T12:47:45;3.00;;;2.80;;
70667;SDS011;58242;51.250;-1.118;2024-02-16T12:50:12;3.47;;;3.15;;
70667;SDS011;58242;51.250;-1.118;2024-02-16T12:52:37;2.95;;;2.83;;
70667;SDS011;58242;51.250;-1.118;2024-02-16T12:55:04;3.50;;;3.20;;
70667;SDS011;58242;51.250;-1.118;2024-02-16T12:57:31;2.80;;;2.70;;
70667;SDS011;58242;51.250;-1.118;2024-02-16T12:59:56;2.80;;;2.60;;
70667;SDS011;58242;51.250;-1.118;2024-02-16T13:02:22;2.92;;;2.72;;
70667;SDS011;58242;51.250;-1.118;2024-02-16T13:04:47;3.28;;;2.95;;
70667;SDS011;58242;51.250;-1.118;2024-02-16T13:07:13;4.05;;;3.70;;
70667;SDS011;58242;51.250;-1.118;2024-02-16T13:09:38;3.15;;;2.90;;
70667;SDS011;58242;51.250;-1.118;2024-02-16T13:12:03;3.53;;;3.22;;
70667;SDS011;58242;51.250;-1.118;2024-02-16T13:14:29;2.97;;;2.60;;
70667;SDS011;58242;51.250;-1.118;2024-02-16T13:16:55;3.30;;;3.00;;
70667;SDS011;58242;51.250;-1.118;2024-02-16T13:19:20;4.22;;;3.40;;
70667;SDS011;58242;51.250;-1.118;2024-02-16T13:21:45;3.17;;;2.88;;
70667;SDS011;58242;51.250;-1.118;2024-02-16T13:24:11;4.28;;;3.05;;
70667;SDS011;58242;51.250;-1.118;2024-02-16T13:26:36;3.10;;;3.00;;
70667;SDS011;58242;51.250;-1.118;2024-02-16T13:29:02;2.85;;;2.65;;
70667;SDS011;58242;51.250;-1.118;2024-02-16T13:31:27;3.88;;;2.80;;
70667;SDS011;58242;51.250;-1.118;2024-02-16T13:33:54;2.67;;;2.47;;
70667;SDS011;58242;51.250;-1.118;2024-02-16T13:36:19;3.45;;;2.90;;
70667;SDS011;58242;51.250;-1.118;2024-02-16T13:38:45;4.75;;;3.33;;
70667;SDS011;58242;51.250;-1.118;2024-02-16T13:41:10;4.20;;;2.88;;
70667;SDS011;58242;51.250;-1.118;2024-02-16T13:43:35;3.13;;;2.90;;
70667;SDS011;58242;51.250;-1.118;2024-02-16T13:46:01;3.13;;;2.83;;
70667;SDS011;58242;51.250;-1.118;2024-02-16T13:48:26;2.80;;;2.60;;
70667;SDS011;58242;51.250;-1.118;2024-02-16T13:50:53;3.25;;;3.03;;
70667;SDS011;58242;51.250;-1.118;2024-02-16T13:53:19;3.28;;;3.03;;
70667;SDS011;58242;51.250;-1.118;2024-02-16T13:55:47;2.90;;;2.80;;
70667;SDS011;58242;51.250;-1.118;2024-02-16T13:58:13;2.80;;;2.60;;
70667;SDS011;58242;51.250;-1.118;2024-02-16T14:00:39;2.78;;;2.58;;
70667;SDS011;58242;51.250;-1.118;2024-02-16T14:03:05;2.90;;;2.70;;
70667;SDS011;58242;51.250;-1.118;2024-02-16T14:05:34;2.70;;;2.60;;
70667;SDS011;58242;51.250;-1.118;2024-02-16T14:08:00;2.85;;;2.63;;
70667;SDS011;58242;51.250;-1.118;2024-02-16T14:10:26;3.63;;;3.08;;
70667;SDS011;58242;51.250;-1.118;2024-02-16T14:12:51;3.17;;;2.90;;
70667;SDS011;58242;51.250;-1.118;2024-02-16T14:15:17;2.72;;;2.53;;
70667;SDS011;58242;51.250;-1.118;2024-02-16T14:17:44;4.38;;;3.20;;
70667;SDS011;58242;51.250;-1.118;2024-02-16T14:20:10;4.25;;;2.90;;
70667;SDS011;58242;51.250;-1.118;2024-02-16T14:22:35;2.90;;;2.70;;
70667;SDS011;58242;51.250;-1.118;2024-02-16T14:25:01;2.40;;;2.30;;
70667;SDS011;58242;51.250;-1.118;2024-02-16T14:27:26;3.28;;;2.60;;
70667;SDS011;58242;51.250;-1.118;2024-02-16T14:29:51;3.40;;;2.60;;
70667;SDS011;58242;51.250;-1.118;2024-02-16T14:32:17;3.15;;;2.92;;